Time,TemperatureF,DewpointF,PressureIn,WindDirection,WindDirectionDegrees,WindSpeedMPH,WindSpeedGustMPH,Humidity,HourlyPrecipIn,Conditions,Clouds,dailyrainin,SolarRadiationWatts/m^2,SoftwareType,DateUTC
2013-05-02 00:03:00,66.4,65.5,29.90,NNE,33,1.0,5.0,97,0.00,,,0.98,0.0,meteohub,2013-05-02 05:03:00,
2013-05-02 00:08:00,66.2,65.3,29.90,NNE,15,1.0,5.0,97,0.00,,,0.00,0.0,meteohub,2013-05-02 05:08:00,
2013-05-02 00:13:00,66.2,65.3,29.90,North,4,0.0,6.0,97,0.00,,,0.00,0.0,meteohub,2013-05-02 05:13:00,
2013-05-02 00:18:00,66.2,65.3,29.90,NE,34,0.0,6.0,97,0.00,,,0.00,0.0,meteohub,2013-05-02 05:18:00,
2013-05-02 00:23:00,66.2,65.3,29.90,North,0,0.0,6.0,97,0.00,,,0.00,0.0,meteohub,2013-05-02 05:23:00,
2013-05-02 00:28:00,66.2,65.3,29.90,North,10,0.0,6.0,97,0.00,,,0.00,0.0,meteohub,2013-05-02 05:28:00,
2013-05-02 00:33:00,66.2,65.3,29.90,North,7,0.0,4.0,97,0.00,,,0.00,0.0,meteohub,2013-05-02 05:33:00,
2013-05-02 00:38:00,66.2,65.3,29.90,NW,318,1.0,3.0,97,0.00,,,0.00,0.0,meteohub,2013-05-02 05:38:00,
2013-05-02 00:43:00,66.2,65.3,29.90,NNW,335,0.0,3.0,97,0.00,,,0.00,0.0,meteohub,2013-05-02 05:43:00,
2013-05-02 00:48:00,66.2,65.3,29.90,NNW,335,0.0,3.0,97,0.00,,,0.00,0.0,meteohub,2013-05-02 05:48:00,
2013-05-02 00:53:00,66.2,65.3,29.90,North,6,0.0,3.0,97,0.00,,,0.00,0.0,meteohub,2013-05-02 05:53:00,
2013-05-02 00:58:00,66.2,65.3,29.90,North,6,1.0,3.0,97,0.00,,,0.00,0.0,meteohub,2013-05-02 05:58:00,
2013-05-02 01:03:00,66.0,65.1,29.90,North,350,0.0,2.0,97,0.00,,,0.00,0.0,meteohub,2013-05-02 06:03:00,
2013-05-02 01:08:00,66.0,65.1,29.90,North,4,0.0,4.0,97,0.00,,,0.00,0.0,meteohub,2013-05-02 06:08:00,
2013-05-02 01:13:00,66.0,65.1,29.90,North,4,0.0,5.0,97,0.00,,,0.00,0.0,meteohub,2013-05-02 06:13:00,
2013-05-02 01:18:00,66.0,65.1,29.90,North,4,0.0,5.0,97,0.00,,,0.00,0.0,meteohub,2013-05-02 06:18:00,
2013-05-02 01:23:00,66.2,65.3,29.90,NNW,345,2.0,3.0,97,0.00,,,0.00,0.0,meteohub,2013-05-02 06:23:00,
2013-05-02 01:28:00,66.2,65.3,29.89,NNW,344,1.0,5.0,97,0.00,,,0.00,0.0,meteohub,2013-05-02 06:28:00,
2013-05-02 01:34:00,66.2,65.3,29.89,North,357,1.0,5.0,97,0.00,,,0.00,0.0,meteohub,2013-05-02 06:34:00,
2013-05-02 01:39:00,66.2,65.3,29.89,NNW,345,0.0,5.0,97,0.00,,,0.00,0.0,meteohub,2013-05-02 06:39:00,
2013-05-02 01:44:00,66.0,65.1,29.89,NNW,346,2.0,4.0,97,0.00,,,0.00,0.0,meteohub,2013-05-02 06:44:00,
2013-05-02 01:49:00,66.0,65.1,29.89,North,358,0.0,4.0,97,0.00,,,0.00,0.0,meteohub,2013-05-02 06:49:00,
2013-05-02 01:54:00,65.8,64.9,29.89,North,356,0.0,4.0,97,0.00,,,0.00,0.0,meteohub,2013-05-02 06:54:00,
2013-05-02 01:59:00,65.8,64.9,29.89,NNW,334,0.0,3.0,97,0.00,,,0.00,0.0,meteohub,2013-05-02 06:59:00,
2013-05-02 02:04:00,65.7,64.8,29.89,NNW,348,0.0,6.0,97,0.00,,,0.00,0.0,meteohub,2013-05-02 07:04:00,
2013-05-02 02:09:00,65.5,64.6,29.89,NNE,28,2.0,6.0,97,0.00,,,0.00,0.0,meteohub,2013-05-02 07:09:00,
2013-05-02 02:14:00,65.5,64.6,29.89,North,358,1.0,6.0,97,0.00,,,0.00,0.0,meteohub,2013-05-02 07:14:00,
2013-05-02 02:19:00,65.3,64.4,29.89,NW,313,0.0,5.0,97,0.00,,,0.00,0.0,meteohub,2013-05-02 07:19:00,
2013-05-02 02:24:00,65.1,64.2,29.89,North,357,0.0,6.0,97,0.00,,,0.00,0.0,meteohub,2013-05-02 07:24:00,
2013-05-02 02:29:00,65.1,64.2,29.89,North,356,0.0,6.0,97,0.00,,,0.00,0.0,meteohub,2013-05-02 07:29:00,
2013-05-02 02:34:00,64.9,64.0,29.89,NNW,341,0.0,6.0,97,0.00,,,0.00,0.0,meteohub,2013-05-02 07:34:00,
2013-05-02 02:39:00,64.9,64.0,29.89,North,10,0.0,6.0,97,0.00,,,0.00,0.0,meteohub,2013-05-02 07:39:00,
2013-05-02 02:44:00,64.9,64.0,29.89,NNE,17,0.0,6.0,97,0.01,,,0.01,0.0,meteohub,2013-05-02 07:44:00,
2013-05-02 02:49:00,64.8,63.9,29.89,WNW,283,0.0,6.0,97,0.01,,,0.01,0.0,meteohub,2013-05-02 07:49:00,
2013-05-02 02:54:00,64.8,63.9,29.89,NNW,332,0.0,7.0,97,0.01,,,0.01,0.0,meteohub,2013-05-02 07:54:00,
2013-05-02 02:59:00,64.8,63.9,29.89,NW,323,0.0,7.0,97,0.01,,,0.01,0.0,meteohub,2013-05-02 07:59:00,
2013-05-02 03:04:00,64.8,63.9,29.89,NNW,343,0.0,7.0,97,0.01,,,0.01,0.0,meteohub,2013-05-02 08:04:00,
2013-05-02 03:09:00,64.8,63.9,29.89,North,350,0.0,6.0,97,0.01,,,0.01,0.0,meteohub,2013-05-02 08:09:00,
2013-05-02 03:14:00,64.6,63.7,29.90,North,350,0.0,3.0,97,0.01,,,0.01,0.0,meteohub,2013-05-02 08:14:00,
2013-05-02 03:19:00,64.6,63.7,29.89,North,350,0.0,4.0,97,0.01,,,0.01,0.0,meteohub,2013-05-02 08:19:00,
2013-05-02 03:24:00,64.6,63.7,29.89,NNW,342,0.0,4.0,97,0.01,,,0.01,0.0,meteohub,2013-05-02 08:24:00,
2013-05-02 03:29:00,64.6,63.7,29.90,NNW,342,0.0,4.0,97,0.01,,,0.01,0.0,meteohub,2013-05-02 08:29:00,
2013-05-02 03:34:00,64.6,63.7,29.90,NNW,342,0.0,4.0,97,0.01,,,0.01,0.0,meteohub,2013-05-02 08:34:00,
2013-05-02 03:39:00,64.6,63.7,29.90,NNW,342,0.0,4.0,97,0.01,,,0.01,0.0,meteohub,2013-05-02 08:39:00,
2013-05-02 03:44:00,64.6,63.7,29.90,NNW,342,0.0,1.0,97,0.00,,,0.01,0.0,meteohub,2013-05-02 08:44:00,
2013-05-02 03:49:00,64.6,63.7,29.91,NNW,342,0.0,1.0,97,0.00,,,0.01,0.0,meteohub,2013-05-02 08:49:00,
2013-05-02 03:54:00,64.8,63.9,29.91,NNW,342,0.0,1.0,97,0.00,,,0.01,0.0,meteohub,2013-05-02 08:54:00,
2013-05-02 03:59:00,64.8,63.9,29.91,NNW,342,0.0,0.0,97,0.00,,,0.01,0.0,meteohub,2013-05-02 08:59:00,
2013-05-02 04:04:00,64.8,63.9,29.91,NNW,342,0.0,0.0,97,0.00,,,0.01,0.0,meteohub,2013-05-02 09:04:00,
2013-05-02 04:09:00,64.8,63.9,29.91,NNW,342,0.0,0.0,97,0.00,,,0.01,0.0,meteohub,2013-05-02 09:09:00,
2013-05-02 04:14:00,64.8,63.9,29.91,NNW,342,0.0,0.0,97,0.00,,,0.01,0.0,meteohub,2013-05-02 09:14:00,
2013-05-02 04:19:00,64.6,63.7,29.91,NNW,342,0.0,1.0,97,0.00,,,0.01,0.0,meteohub,2013-05-02 09:19:00,
2013-05-02 04:24:00,64.6,63.7,29.91,NNW,342,0.0,1.0,97,0.00,,,0.01,0.0,meteohub,2013-05-02 09:24:00,
2013-05-02 04:29:00,64.6,63.7,29.91,NNW,342,0.0,1.0,97,0.00,,,0.01,0.0,meteohub,2013-05-02 09:29:00,
2013-05-02 04:34:00,64.6,63.7,29.91,NNW,342,0.0,2.0,97,0.00,,,0.01,0.0,meteohub,2013-05-02 09:34:00,
2013-05-02 04:39:00,64.6,63.7,29.91,NNW,342,0.0,2.0,97,0.00,,,0.01,0.0,meteohub,2013-05-02 09:39:00,
2013-05-02 04:44:00,64.6,63.7,29.91,NNW,342,0.0,2.0,97,0.00,,,0.01,0.0,meteohub,2013-05-02 09:44:00,
2013-05-02 04:49:00,64.6,63.7,29.91,NNW,342,0.0,3.0,97,0.00,,,0.01,0.0,meteohub,2013-05-02 09:49:00,
2013-05-02 04:55:00,64.6,63.7,29.91,NNW,342,0.0,3.0,97,0.00,,,0.01,0.0,meteohub,2013-05-02 09:55:00,
2013-05-02 05:00:00,64.6,63.7,29.91,NNW,342,0.0,3.0,97,0.00,,,0.01,0.0,meteohub,2013-05-02 10:00:00,
2013-05-02 05:05:00,64.4,63.5,29.91,NNW,342,0.0,0.0,97,0.00,,,0.01,0.0,meteohub,2013-05-02 10:05:00,
2013-05-02 05:10:00,64.4,63.5,29.91,NNW,342,0.0,0.0,97,0.00,,,0.01,0.0,meteohub,2013-05-02 10:10:00,
2013-05-02 05:15:00,64.4,63.5,29.91,NNW,342,0.0,0.0,97,0.00,,,0.01,0.0,meteohub,2013-05-02 10:15:00,
2013-05-02 05:20:00,64.2,63.3,29.91,NNW,342,0.0,0.0,97,0.00,,,0.01,0.0,meteohub,2013-05-02 10:20:00,
2013-05-02 05:25:00,64.2,63.3,29.91,NNW,342,0.0,0.0,97,0.00,,,0.01,0.0,meteohub,2013-05-02 10:25:00,
2013-05-02 05:30:00,64.2,63.3,29.91,NNW,342,0.0,0.0,97,0.00,,,0.01,0.0,meteohub,2013-05-02 10:30:00,
2013-05-02 05:35:00,64.4,63.5,29.91,NNW,342,0.0,0.0,97,0.00,,,0.01,0.0,meteohub,2013-05-02 10:35:00,
2013-05-02 05:40:00,64.4,63.5,29.91,NNW,342,0.0,0.0,97,0.00,,,0.01,0.0,meteohub,2013-05-02 10:40:00,
2013-05-02 05:45:00,64.4,63.5,29.91,NNW,342,0.0,0.0,97,0.00,,,0.01,0.0,meteohub,2013-05-02 10:45:00,
2013-05-02 05:50:00,64.4,63.5,29.91,NNW,342,0.0,0.0,97,0.00,,,0.01,0.0,meteohub,2013-05-02 10:50:00,
2013-05-02 05:55:00,64.4,63.5,29.91,NNW,342,0.0,1.0,97,0.00,,,0.01,0.0,meteohub,2013-05-02 10:55:00,
2013-05-02 06:00:00,64.2,63.3,29.91,NNW,342,0.0,1.0,97,0.00,,,0.01,0.0,meteohub,2013-05-02 11:00:00,
2013-05-02 06:05:00,64.2,63.3,29.91,NNW,342,0.0,2.0,97,0.00,,,0.01,0.0,meteohub,2013-05-02 11:05:00,
2013-05-02 06:10:00,64.2,63.3,29.92,NNW,342,0.0,1.0,97,0.00,,,0.01,0.0,meteohub,2013-05-02 11:10:00,
2013-05-02 06:15:00,64.2,63.3,29.92,NNW,342,0.0,1.0,97,0.00,,,0.01,0.0,meteohub,2013-05-02 11:15:00,
2013-05-02 06:20:00,64.2,63.3,29.92,NNW,342,0.0,1.0,97,0.00,,,0.01,0.0,meteohub,2013-05-02 11:20:00,
2013-05-02 06:25:00,64.2,63.3,29.92,NNW,342,0.0,1.0,97,0.00,,,0.01,0.0,meteohub,2013-05-02 11:25:00,
2013-05-02 06:30:00,64.2,63.3,29.93,NNW,342,0.0,2.0,97,0.00,,,0.01,0.0,meteohub,2013-05-02 11:30:00,
2013-05-02 06:35:00,64.4,63.5,29.93,NNW,342,1.0,2.0,97,0.00,,,0.01,0.0,meteohub,2013-05-02 11:35:00,
2013-05-02 06:40:00,64.2,63.3,29.93,NNW,342,0.0,2.0,97,0.00,,,0.01,5.0,meteohub,2013-05-02 11:40:00,
2013-05-02 06:45:00,64.4,63.5,29.94,NNW,342,0.0,2.0,97,0.00,,,0.01,5.0,meteohub,2013-05-02 11:45:00,
2013-05-02 06:50:00,64.6,63.7,29.93,NNW,342,0.0,0.0,97,0.00,,,0.01,9.0,meteohub,2013-05-02 11:50:00,
2013-05-02 06:55:00,64.6,63.7,29.94,NNW,342,0.0,0.0,97,0.00,,,0.01,11.0,meteohub,2013-05-02 11:55:00,
2013-05-02 07:00:00,64.6,63.7,29.94,NNW,342,0.0,0.0,97,0.00,,,0.01,12.0,meteohub,2013-05-02 12:00:00,
2013-05-02 07:05:00,64.6,63.7,29.94,NNW,342,0.0,0.0,97,0.00,,,0.01,14.0,meteohub,2013-05-02 12:05:00,
2013-05-02 07:10:00,64.6,63.7,29.94,NNW,342,0.0,3.0,97,0.00,,,0.01,23.0,meteohub,2013-05-02 12:10:00,
2013-05-02 07:15:00,64.6,63.7,29.94,NNW,342,0.0,3.0,97,0.00,,,0.01,16.0,meteohub,2013-05-02 12:15:00,
2013-05-02 07:20:00,64.6,63.7,29.94,NNW,342,0.0,0.0,97,0.00,,,0.01,16.0,meteohub,2013-05-02 12:20:00,
2013-05-02 07:25:00,64.6,63.7,29.94,NNW,342,0.0,0.0,97,0.00,,,0.01,14.0,meteohub,2013-05-02 12:25:00,
2013-05-02 07:30:00,64.6,63.7,29.94,NNW,344,0.0,2.0,97,0.00,,,0.01,23.0,meteohub,2013-05-02 12:30:00,
2013-05-02 07:35:00,64.6,63.5,29.94,NNW,344,0.0,2.0,96,0.00,,,0.01,30.0,meteohub,2013-05-02 12:35:00,
2013-05-02 07:40:00,64.8,63.7,29.94,NNW,344,0.0,2.0,96,0.00,,,0.01,33.0,meteohub,2013-05-02 12:40:00,
2013-05-02 07:45:00,64.8,63.7,29.94,NNW,344,0.0,2.0,96,0.00,,,0.01,47.0,meteohub,2013-05-02 12:45:00,
2013-05-02 07:50:00,64.8,63.7,29.94,NNW,344,0.0,0.0,96,0.00,,,0.01,56.0,meteohub,2013-05-02 12:50:00,
2013-05-02 07:55:00,64.9,63.9,29.94,NNW,335,0.0,2.0,96,0.00,,,0.01,65.0,meteohub,2013-05-02 12:55:00,
2013-05-02 08:00:00,65.1,64.0,29.94,NNW,335,0.0,2.0,96,0.00,,,0.01,65.0,meteohub,2013-05-02 13:00:00,
2013-05-02 08:05:00,65.1,64.0,29.95,NNW,335,0.0,2.0,96,0.00,,,0.01,65.0,meteohub,2013-05-02 13:05:00,
2013-05-02 08:10:00,65.1,64.0,29.95,NNW,335,0.0,0.0,96,0.00,,,0.01,39.0,meteohub,2013-05-02 13:10:00,
2013-05-02 08:15:00,65.1,64.0,29.95,NNW,335,0.0,0.0,96,0.00,,,0.01,53.0,meteohub,2013-05-02 13:15:00,
2013-05-02 08:20:00,65.3,64.0,29.95,NNW,335,0.0,0.0,96,0.00,,,0.01,67.0,meteohub,2013-05-02 13:20:00,
2013-05-02 08:26:00,65.3,64.0,29.95,NNW,335,0.0,1.0,96,0.00,,,0.01,49.0,meteohub,2013-05-02 13:26:00,
2013-05-02 08:30:00,65.3,64.0,29.95,NNW,335,0.0,1.0,96,0.00,,,0.01,47.0,meteohub,2013-05-02 13:30:00,
2013-05-02 08:36:00,65.3,63.9,29.96,NNW,335,0.0,1.0,95,0.00,,,0.01,51.0,meteohub,2013-05-02 13:36:00,
2013-05-02 08:41:00,65.5,64.0,29.96,NNW,335,0.0,2.0,95,0.00,,,0.01,70.0,meteohub,2013-05-02 13:41:00,
2013-05-02 08:46:00,65.7,64.4,29.96,NNW,335,0.0,2.0,96,0.00,,,0.01,84.0,meteohub,2013-05-02 13:46:00,
2013-05-02 08:51:00,65.7,64.2,29.96,NNW,335,0.0,2.0,95,0.00,,,0.01,98.0,meteohub,2013-05-02 13:51:00,
2013-05-02 08:56:00,65.7,64.2,29.97,NNW,335,0.0,1.0,95,0.00,,,0.01,77.0,meteohub,2013-05-02 13:56:00,
2013-05-02 09:01:00,65.7,64.2,29.97,NNW,335,0.0,1.0,95,0.00,,,0.01,98.0,meteohub,2013-05-02 14:01:00,
2013-05-02 09:06:00,65.8,64.4,29.96,NW,313,0.0,3.0,95,0.00,,,0.01,105.0,meteohub,2013-05-02 14:06:00,
2013-05-02 09:11:00,66.0,64.2,29.97,NW,313,0.0,3.0,94,0.00,,,0.01,120.0,meteohub,2013-05-02 14:11:00,
2013-05-02 09:16:00,66.4,64.6,29.97,NW,313,0.0,3.0,94,0.00,,,0.01,158.0,meteohub,2013-05-02 14:16:00,
2013-05-02 09:21:00,66.4,64.6,29.97,NW,313,0.0,3.0,94,0.00,,,0.01,97.0,meteohub,2013-05-02 14:21:00,
2013-05-02 09:26:00,66.6,64.4,29.96,NW,313,0.0,2.0,93,0.00,,,0.01,74.0,meteohub,2013-05-02 14:26:00,
2013-05-02 09:31:00,66.2,64.0,29.97,NW,313,0.0,2.0,93,0.00,,,0.01,67.0,meteohub,2013-05-02 14:31:00,
2013-05-02 09:36:00,66.2,64.0,29.96,NW,313,0.0,2.0,93,0.00,,,0.01,97.0,meteohub,2013-05-02 14:36:00,
2013-05-02 09:41:00,66.4,64.2,29.96,NW,313,0.0,2.0,93,0.00,,,0.01,98.0,meteohub,2013-05-02 14:41:00,
2013-05-02 09:46:00,66.4,64.2,29.96,NW,313,0.0,3.0,93,0.00,,,0.01,135.0,meteohub,2013-05-02 14:46:00,
2013-05-02 09:51:00,66.7,64.9,29.97,NW,313,0.0,1.0,94,0.00,,,0.01,97.0,meteohub,2013-05-02 14:51:00,
2013-05-02 09:56:00,66.6,64.4,29.96,NW,313,0.0,0.0,93,0.00,,,0.01,134.0,meteohub,2013-05-02 14:56:00,
2013-05-02 10:01:00,66.6,64.4,29.97,NNW,327,0.0,3.0,93,0.00,,,0.01,125.0,meteohub,2013-05-02 15:01:00,
2013-05-02 10:06:00,66.6,64.4,29.97,NNW,327,0.0,3.0,93,0.00,,,0.01,109.0,meteohub,2013-05-02 15:06:00,
2013-05-02 10:11:00,66.6,64.4,29.97,NNW,327,0.0,3.0,93,0.00,,,0.01,116.0,meteohub,2013-05-02 15:11:00,
2013-05-02 10:16:00,66.6,64.4,29.98,NNW,327,0.0,1.0,93,0.00,,,0.01,93.0,meteohub,2013-05-02 15:16:00,
2013-05-02 10:21:00,66.6,64.4,29.98,NNW,327,0.0,1.0,93,0.00,,,0.01,190.0,meteohub,2013-05-02 15:21:00,
2013-05-02 10:26:00,66.7,64.6,29.98,NNW,327,0.0,0.0,93,0.00,,,0.01,218.0,meteohub,2013-05-02 15:26:00,
2013-05-02 10:31:00,67.3,64.9,29.97,NNW,327,0.0,0.0,92,0.00,,,0.01,162.0,meteohub,2013-05-02 15:31:00,
2013-05-02 10:36:00,67.3,64.6,29.98,NNW,327,0.0,2.0,91,0.00,,,0.01,192.0,meteohub,2013-05-02 15:36:00,
2013-05-02 10:41:00,67.5,64.8,29.98,SSE,152,0.0,2.0,91,0.00,,,0.01,218.0,meteohub,2013-05-02 15:41:00,
2013-05-02 10:46:00,67.6,64.9,29.97,South,170,0.0,2.0,91,0.00,,,0.01,234.0,meteohub,2013-05-02 15:46:00,
2013-05-02 10:51:00,68.0,65.3,29.98,South,170,0.0,2.0,91,0.00,,,0.01,197.0,meteohub,2013-05-02 15:51:00,
2013-05-02 10:56:00,68.2,65.1,29.98,South,170,0.0,2.0,90,0.00,,,0.01,141.0,meteohub,2013-05-02 15:56:00,
2013-05-02 11:01:00,68.5,65.5,29.98,NW,323,0.0,2.0,90,0.00,,,0.01,229.0,meteohub,2013-05-02 16:01:00,
2013-05-02 11:06:00,68.5,65.1,29.98,WSW,249,0.0,4.0,89,0.00,,,0.01,283.0,meteohub,2013-05-02 16:06:00,
2013-05-02 11:11:00,68.5,64.8,29.98,WSW,249,0.0,5.0,88,0.00,,,0.01,213.0,meteohub,2013-05-02 16:11:00,
2013-05-02 11:16:00,68.7,65.3,29.98,SSE,164,0.0,5.0,89,0.00,,,0.01,155.0,meteohub,2013-05-02 16:16:00,
2013-05-02 11:21:00,68.5,64.8,29.98,SSE,164,0.0,5.0,88,0.00,,,0.01,114.0,meteohub,2013-05-02 16:21:00,
2013-05-02 11:27:00,68.4,64.6,29.98,SSE,164,0.0,2.0,88,0.00,,,0.01,186.0,meteohub,2013-05-02 16:27:00,
2013-05-02 11:32:00,68.7,65.3,29.98,SSE,165,0.0,2.0,89,0.00,,,0.01,297.0,meteohub,2013-05-02 16:32:00,
2013-05-02 11:37:00,69.3,65.8,29.98,SSE,165,0.0,1.0,89,0.00,,,0.01,346.0,meteohub,2013-05-02 16:37:00,
2013-05-02 11:42:00,69.3,64.9,29.98,SSE,165,0.0,1.0,86,0.00,,,0.01,253.0,meteohub,2013-05-02 16:42:00,
2013-05-02 11:47:00,69.3,64.9,29.98,SSE,165,0.0,1.0,86,0.00,,,0.01,308.0,meteohub,2013-05-02 16:47:00,
2013-05-02 11:52:00,70.2,66.0,29.98,South,171,0.0,1.0,87,0.00,,,0.01,267.0,meteohub,2013-05-02 16:52:00,
2013-05-02 11:57:00,70.0,65.3,29.98,NW,318,0.0,2.0,85,0.00,,,0.01,139.0,meteohub,2013-05-02 16:57:00,
2013-05-02 12:02:00,69.6,65.3,29.98,NW,318,0.0,3.0,86,0.00,,,0.01,250.0,meteohub,2013-05-02 17:02:00,
2013-05-02 12:07:00,69.6,64.9,29.97,NW,318,0.0,3.0,85,0.00,,,0.01,185.0,meteohub,2013-05-02 17:07:00,
2013-05-02 12:12:00,69.6,65.3,29.97,NW,318,0.0,1.0,86,0.00,,,0.01,165.0,meteohub,2013-05-02 17:12:00,
2013-05-02 12:17:00,69.8,65.5,29.97,East,99,0.0,1.0,86,0.00,,,0.01,128.0,meteohub,2013-05-02 17:17:00,
2013-05-02 12:22:00,69.6,65.3,29.97,North,10,0.0,2.0,86,0.00,,,0.01,97.0,meteohub,2013-05-02 17:22:00,
2013-05-02 12:27:00,69.4,65.1,29.97,North,10,0.0,2.0,86,0.00,,,0.01,125.0,meteohub,2013-05-02 17:27:00,
2013-05-02 12:32:00,69.8,65.8,29.97,North,10,0.0,2.0,87,0.00,,,0.01,181.0,meteohub,2013-05-02 17:32:00,
2013-05-02 12:37:00,69.8,65.8,29.97,SE,135,0.0,1.0,87,0.00,,,0.01,144.0,meteohub,2013-05-02 17:37:00,
2013-05-02 12:42:00,69.6,65.3,29.97,SE,137,0.0,2.0,86,0.00,,,0.01,204.0,meteohub,2013-05-02 17:42:00,
2013-05-02 12:47:00,70.0,66.0,29.96,SE,137,0.0,2.0,87,0.00,,,0.01,163.0,meteohub,2013-05-02 17:47:00,
2013-05-02 12:52:00,69.8,65.5,29.96,SE,137,0.0,2.0,86,0.00,,,0.01,139.0,meteohub,2013-05-02 17:52:00,
2013-05-02 12:57:00,69.6,65.3,29.96,SE,137,0.0,2.0,86,0.00,,,0.01,130.0,meteohub,2013-05-02 17:57:00,
2013-05-02 13:02:00,69.4,65.1,29.96,SE,137,0.0,2.0,86,0.00,,,0.01,120.0,meteohub,2013-05-02 18:02:00,
2013-05-02 13:07:00,69.3,64.9,29.97,North,9,0.0,2.0,86,0.00,,,0.01,84.0,meteohub,2013-05-02 18:07:00,
2013-05-02 13:12:00,69.3,64.9,29.97,NNW,344,0.0,1.0,86,0.00,,,0.01,86.0,meteohub,2013-05-02 18:12:00,
2013-05-02 13:17:00,69.1,64.8,29.97,NNW,344,0.0,1.0,86,0.00,,,0.01,79.0,meteohub,2013-05-02 18:17:00,
2013-05-02 13:22:00,69.1,64.8,29.97,NNW,344,0.0,1.0,86,0.00,,,0.01,77.0,meteohub,2013-05-02 18:22:00,
2013-05-02 13:27:00,69.1,65.1,29.97,NNW,344,0.0,1.0,87,0.00,,,0.01,84.0,meteohub,2013-05-02 18:27:00,
2013-05-02 13:32:00,68.9,64.6,29.97,NNW,343,0.0,0.0,86,0.00,,,0.01,118.0,meteohub,2013-05-02 18:32:00,
2013-05-02 13:37:00,69.1,64.8,29.97,NNW,344,0.0,2.0,86,0.00,,,0.01,141.0,meteohub,2013-05-02 18:37:00,
2013-05-02 13:42:00,69.1,64.8,29.97,NNW,344,0.0,2.0,86,0.00,,,0.01,127.0,meteohub,2013-05-02 18:42:00,
2013-05-02 13:47:00,69.1,64.8,29.97,NNW,344,0.0,1.0,86,0.00,,,0.01,125.0,meteohub,2013-05-02 18:47:00,
2013-05-02 13:52:00,69.3,64.9,29.97,NW,313,0.0,1.0,86,0.00,,,0.01,128.0,meteohub,2013-05-02 18:52:00,
2013-05-02 13:57:00,69.3,64.9,29.97,NE,38,0.0,3.0,86,0.00,,,0.01,86.0,meteohub,2013-05-02 18:57:00,
2013-05-02 14:02:00,69.1,64.4,29.97,NW,323,2.0,3.0,85,0.00,,,0.01,79.0,meteohub,2013-05-02 19:02:00,
2013-05-02 14:07:00,68.9,64.6,29.97,NW,318,0.0,3.0,86,0.00,,,0.01,105.0,meteohub,2013-05-02 19:07:00,
2013-05-02 14:12:00,69.1,65.1,29.97,South,183,0.0,3.0,87,0.00,,,0.01,141.0,meteohub,2013-05-02 19:12:00,
2013-05-02 14:17:00,69.3,64.9,29.97,South,183,0.0,4.0,86,0.00,,,0.01,132.0,meteohub,2013-05-02 19:17:00,
2013-05-02 14:22:00,69.3,64.9,29.97,South,183,0.0,4.0,86,0.00,,,0.01,130.0,meteohub,2013-05-02 19:22:00,
2013-05-02 14:27:00,69.4,65.1,29.97,NNE,21,0.0,0.0,86,0.00,,,0.01,130.0,meteohub,2013-05-02 19:27:00,
2013-05-02 14:32:00,69.3,64.6,29.97,WSW,254,0.0,6.0,85,0.00,,,0.01,134.0,meteohub,2013-05-02 19:32:00,
2013-05-02 14:37:00,69.3,64.9,29.97,NNW,339,0.0,6.0,86,0.00,,,0.01,188.0,meteohub,2013-05-02 19:37:00,
2013-05-02 14:42:00,69.4,64.8,29.97,NNW,339,0.0,6.0,85,0.00,,,0.01,156.0,meteohub,2013-05-02 19:42:00,
2013-05-02 14:47:00,69.4,65.1,29.97,South,188,0.0,5.0,86,0.00,,,0.01,91.0,meteohub,2013-05-02 19:47:00,
2013-05-02 14:52:00,69.3,65.3,29.97,South,181,0.0,5.0,87,0.00,,,0.01,116.0,meteohub,2013-05-02 19:52:00,
2013-05-02 14:57:00,68.9,64.9,29.97,South,173,0.0,5.0,87,0.00,,,0.01,107.0,meteohub,2013-05-02 19:57:00,
2013-05-02 15:02:00,68.7,64.9,29.97,SSW,211,0.0,6.0,88,0.00,,,0.01,93.0,meteohub,2013-05-02 20:02:00,
2013-05-02 15:07:00,68.7,64.9,29.97,NW,323,2.0,6.0,88,0.00,,,0.01,90.0,meteohub,2013-05-02 20:07:00,
2013-05-02 15:12:00,68.5,64.8,29.97,WNW,301,0.0,4.0,88,0.00,,,0.01,109.0,meteohub,2013-05-02 20:12:00,
2013-05-02 15:17:00,68.7,64.9,29.97,South,181,3.0,4.0,88,0.00,,,0.01,120.0,meteohub,2013-05-02 20:17:00,
2013-05-02 15:22:00,68.5,64.6,29.97,South,180,0.0,4.0,87,0.00,,,0.01,79.0,meteohub,2013-05-02 20:22:00,
2013-05-02 15:27:00,68.5,64.8,29.96,South,186,0.0,3.0,88,0.00,,,0.01,63.0,meteohub,2013-05-02 20:27:00,
2013-05-02 15:32:00,68.4,64.6,29.96,SSE,167,0.0,3.0,88,0.00,,,0.01,54.0,meteohub,2013-05-02 20:32:00,
2013-05-02 15:37:00,68.4,64.9,29.96,South,169,0.0,6.0,89,0.00,,,0.01,72.0,meteohub,2013-05-02 20:37:00,
2013-05-02 15:42:00,68.2,64.8,29.96,South,172,0.0,6.0,89,0.00,,,0.01,69.0,meteohub,2013-05-02 20:42:00,
2013-05-02 15:47:00,68.2,64.8,29.96,SSW,207,0.0,6.0,89,0.00,,,0.01,86.0,meteohub,2013-05-02 20:47:00,
2013-05-02 15:52:00,68.0,64.9,29.96,South,173,0.0,4.0,90,0.00,,,0.01,158.0,meteohub,2013-05-02 20:52:00,
2013-05-02 15:57:00,68.2,65.1,29.96,South,173,0.0,6.0,90,0.00,,,0.01,60.0,meteohub,2013-05-02 20:57:00,
2013-05-02 16:02:00,67.8,64.8,29.96,SSE,158,0.0,6.0,90,0.00,,,0.01,83.0,meteohub,2013-05-02 21:02:00,
2013-05-02 16:07:00,67.6,64.6,29.96,SSE,163,0.0,5.0,90,0.00,,,0.01,91.0,meteohub,2013-05-02 21:07:00,
2013-05-02 16:12:00,67.5,64.8,29.96,SSE,163,0.0,5.0,91,0.00,,,0.01,139.0,meteohub,2013-05-02 21:12:00,
2013-05-02 16:17:00,67.8,65.1,29.96,SSE,163,0.0,5.0,91,0.00,,,0.01,223.0,meteohub,2013-05-02 21:17:00,
2013-05-02 16:22:00,68.5,65.5,29.95,SSE,164,0.0,1.0,90,0.00,,,0.01,225.0,meteohub,2013-05-02 21:22:00,
2013-05-02 16:27:00,69.4,66.0,29.96,SW,222,0.0,4.0,89,0.00,,,0.01,234.0,meteohub,2013-05-02 21:27:00,
2013-05-02 16:32:00,69.8,66.0,29.96,WSW,248,0.0,5.0,88,0.00,,,0.01,188.0,meteohub,2013-05-02 21:32:00,
2013-05-02 16:37:00,69.4,65.5,29.96,South,184,3.0,5.0,87,0.00,,,0.01,105.0,meteohub,2013-05-02 21:37:00,
2013-05-02 16:42:00,69.1,65.3,29.96,NW,318,0.0,4.0,88,0.00,,,0.01,162.0,meteohub,2013-05-02 21:42:00,
2013-05-02 16:47:00,68.7,64.9,29.95,NW,313,0.0,4.0,88,0.00,,,0.01,172.0,meteohub,2013-05-02 21:47:00,
2013-05-02 16:52:00,68.5,64.6,29.95,NNW,328,0.0,4.0,87,0.00,,,0.01,237.0,meteohub,2013-05-02 21:52:00,
2013-05-02 16:57:00,69.1,65.1,29.95,NNW,332,0.0,2.0,87,0.00,,,0.01,218.0,meteohub,2013-05-02 21:57:00,
2013-05-02 17:02:00,69.1,64.8,29.95,NNW,348,0.0,5.0,86,0.00,,,0.01,163.0,meteohub,2013-05-02 22:02:00,
2013-05-02 17:07:00,69.3,65.3,29.95,NNW,348,0.0,5.0,87,0.00,,,0.01,185.0,meteohub,2013-05-02 22:07:00,
2013-05-02 17:12:00,69.3,65.3,29.94,NNW,340,0.0,5.0,87,0.00,,,0.01,134.0,meteohub,2013-05-02 22:12:00,
2013-05-02 17:17:00,70.0,66.2,29.94,SSE,149,2.0,4.0,88,0.00,,,0.01,118.0,meteohub,2013-05-02 22:17:00,
2013-05-02 17:22:00,69.8,65.5,29.95,SSE,151,0.0,4.0,86,0.00,,,0.01,100.0,meteohub,2013-05-02 22:22:00,
2013-05-02 17:27:00,69.4,65.1,29.95,SSE,160,1.0,4.0,86,0.00,,,0.01,116.0,meteohub,2013-05-02 22:27:00,
2013-05-02 17:32:00,69.3,65.3,29.96,South,171,0.0,4.0,87,0.00,,,0.01,97.0,meteohub,2013-05-02 22:32:00,
2013-05-02 17:37:00,69.3,65.3,29.96,South,171,0.0,4.0,87,0.00,,,0.01,81.0,meteohub,2013-05-02 22:37:00,
2013-05-02 17:42:00,69.1,65.1,29.96,NW,313,0.0,3.0,87,0.00,,,0.01,104.0,meteohub,2013-05-02 22:42:00,
2013-05-02 17:47:00,69.1,64.4,29.96,ESE,108,0.0,3.0,85,0.00,,,0.01,98.0,meteohub,2013-05-02 22:47:00,
2013-05-02 17:52:00,68.9,64.2,29.96,ESE,108,0.0,3.0,85,0.00,,,0.01,79.0,meteohub,2013-05-02 22:52:00,
2013-05-02 17:57:00,68.7,64.0,29.96,NW,318,0.0,3.0,85,0.00,,,0.01,70.0,meteohub,2013-05-02 22:57:00,
2013-05-02 18:02:00,68.5,63.9,29.96,NW,313,0.0,5.0,85,0.00,,,0.01,42.0,meteohub,2013-05-02 23:02:00,
2013-05-02 18:07:00,68.5,64.2,29.95,NW,313,0.0,6.0,86,0.00,,,0.01,51.0,meteohub,2013-05-02 23:07:00,
2013-05-02 18:12:00,68.4,64.0,29.96,NW,313,0.0,6.0,86,0.00,,,0.01,74.0,meteohub,2013-05-02 23:12:00,
2013-05-02 18:17:00,68.5,64.2,29.96,NW,313,0.0,6.0,86,0.00,,,0.01,63.0,meteohub,2013-05-02 23:17:00,
2013-05-02 18:22:00,68.5,64.6,29.96,NNW,341,0.0,1.0,87,0.00,,,0.01,56.0,meteohub,2013-05-02 23:22:00,
2013-05-02 18:27:00,68.4,64.4,29.96,NNW,340,0.0,3.0,87,0.00,,,0.01,62.0,meteohub,2013-05-02 23:27:00,
2013-05-02 18:32:00,68.2,64.2,29.96,NNW,329,0.0,3.0,87,0.00,,,0.01,46.0,meteohub,2013-05-02 23:32:00,
2013-05-02 18:37:00,68.0,64.0,29.96,NNW,347,0.0,3.0,87,0.00,,,0.01,40.0,meteohub,2013-05-02 23:37:00,
2013-05-02 18:42:00,67.8,64.2,29.96,NNW,347,0.0,3.0,88,0.00,,,0.01,49.0,meteohub,2013-05-02 23:42:00,
2013-05-02 18:47:00,67.6,63.7,29.96,WNW,287,0.0,3.0,87,0.00,,,0.01,47.0,meteohub,2013-05-02 23:47:00,
2013-05-02 18:52:00,67.6,64.0,29.96,WNW,287,0.0,3.0,88,0.00,,,0.01,37.0,meteohub,2013-05-02 23:52:00,
2013-05-02 18:57:00,67.6,64.0,29.96,WNW,287,0.0,3.0,88,0.00,,,0.01,32.0,meteohub,2013-05-02 23:57:00,
2013-05-02 19:02:00,67.5,64.0,29.96,West,273,0.0,4.0,89,0.00,,,0.01,33.0,meteohub,2013-05-03 00:02:00,
2013-05-02 19:07:00,67.5,64.0,29.96,WNW,290,0.0,4.0,89,0.00,,,0.01,32.0,meteohub,2013-05-03 00:07:00,
2013-05-02 19:12:00,67.5,64.0,29.96,WNW,290,0.0,4.0,89,0.00,,,0.01,23.0,meteohub,2013-05-03 00:12:00,
2013-05-02 19:17:00,67.3,63.9,29.95,NNW,342,0.0,4.0,89,0.00,,,0.01,18.0,meteohub,2013-05-03 00:17:00,
2013-05-02 19:22:00,66.9,63.5,29.95,NNW,342,0.0,4.0,89,0.00,,,0.01,12.0,meteohub,2013-05-03 00:22:00,
2013-05-02 19:27:00,66.9,63.9,29.96,NNW,342,0.0,4.0,90,0.00,,,0.01,9.0,meteohub,2013-05-03 00:27:00,
2013-05-02 19:32:00,66.7,63.7,29.96,NNW,331,3.0,3.0,90,0.00,,,0.01,5.0,meteohub,2013-05-03 00:32:00,
2013-05-02 19:37:00,66.7,63.7,29.96,South,189,0.0,3.0,90,0.00,,,0.01,0.0,meteohub,2013-05-03 00:37:00,
2013-05-02 19:42:00,66.6,63.5,29.96,South,188,0.0,3.0,90,0.00,,,0.01,0.0,meteohub,2013-05-03 00:42:00,
2013-05-02 19:47:00,66.6,63.9,29.97,South,189,0.0,3.0,91,0.00,,,0.01,0.0,meteohub,2013-05-03 00:47:00,
2013-05-02 19:52:00,66.4,63.7,29.97,SSW,194,0.0,2.0,91,0.00,,,0.01,0.0,meteohub,2013-05-03 00:52:00,
2013-05-02 19:57:00,66.4,63.7,29.97,SSW,203,0.0,2.0,91,0.00,,,0.01,0.0,meteohub,2013-05-03 00:57:00,
2013-05-02 20:02:00,66.4,63.7,29.97,West,269,0.0,3.0,91,0.00,,,0.01,0.0,meteohub,2013-05-03 01:02:00,
2013-05-02 20:07:00,66.4,63.7,29.97,SW,214,0.0,3.0,91,0.00,,,0.01,0.0,meteohub,2013-05-03 01:07:00,
2013-05-02 20:12:00,66.4,64.0,29.97,SW,219,0.0,3.0,92,0.00,,,0.01,0.0,meteohub,2013-05-03 01:12:00,
2013-05-02 20:17:00,66.2,63.9,29.98,SW,217,0.0,3.0,92,0.00,,,0.01,0.0,meteohub,2013-05-03 01:17:00,
2013-05-02 20:22:00,66.0,63.7,29.98,SW,217,0.0,2.0,92,0.00,,,0.01,0.0,meteohub,2013-05-03 01:22:00,
2013-05-02 20:27:00,66.0,63.9,29.98,SSW,211,0.0,2.0,93,0.00,,,0.01,0.0,meteohub,2013-05-03 01:27:00,
2013-05-02 20:32:00,66.0,63.9,29.98,SSW,211,0.0,3.0,93,0.00,,,0.01,0.0,meteohub,2013-05-03 01:32:00,
2013-05-02 20:37:00,65.8,63.7,29.98,SSW,211,0.0,3.0,93,0.00,,,0.01,0.0,meteohub,2013-05-03 01:37:00,
2013-05-02 20:42:00,65.8,63.7,29.98,SSW,211,0.0,2.0,93,0.00,,,0.01,0.0,meteohub,2013-05-03 01:42:00,
2013-05-02 20:47:00,65.8,63.7,29.98,South,176,0.0,2.0,93,0.00,,,0.01,0.0,meteohub,2013-05-03 01:47:00,
2013-05-02 20:52:00,65.8,63.7,29.99,South,177,0.0,1.0,93,0.00,,,0.01,0.0,meteohub,2013-05-03 01:52:00,
2013-05-02 20:57:00,65.8,63.7,29.99,South,187,0.0,1.0,93,0.00,,,0.01,0.0,meteohub,2013-05-03 01:57:00,
2013-05-02 21:02:00,65.8,64.0,29.99,South,187,0.0,1.0,94,0.00,,,0.01,0.0,meteohub,2013-05-03 02:02:00,
2013-05-02 21:07:00,65.7,63.9,29.99,South,187,0.0,1.0,94,0.00,,,0.01,0.0,meteohub,2013-05-03 02:07:00,
2013-05-02 21:12:00,65.7,63.9,29.99,South,187,0.0,1.0,94,0.00,,,0.01,0.0,meteohub,2013-05-03 02:12:00,
2013-05-02 21:17:00,65.7,63.9,30.00,South,187,0.0,2.0,94,0.00,,,0.01,0.0,meteohub,2013-05-03 02:17:00,
2013-05-02 21:22:00,65.7,63.9,30.00,South,187,0.0,2.0,94,0.00,,,0.01,0.0,meteohub,2013-05-03 02:22:00,
2013-05-02 21:27:00,65.7,63.9,30.00,South,187,0.0,2.0,94,0.00,,,0.01,0.0,meteohub,2013-05-03 02:27:00,
2013-05-02 21:32:00,65.7,63.9,30.00,South,187,1.0,1.0,94,0.00,,,0.01,0.0,meteohub,2013-05-03 02:32:00,
2013-05-02 21:37:00,65.7,63.9,30.00,South,187,0.0,4.0,94,0.00,,,0.01,0.0,meteohub,2013-05-03 02:37:00,
2013-05-02 21:43:00,65.7,63.9,30.00,SSE,161,0.0,4.0,94,0.00,,,0.01,0.0,meteohub,2013-05-03 02:43:00,
2013-05-02 21:47:00,65.5,63.7,30.01,SSE,162,0.0,4.0,94,0.00,,,0.01,0.0,meteohub,2013-05-03 02:47:00,
2013-05-02 21:53:00,65.5,63.7,30.01,SSE,166,0.0,4.0,94,0.00,,,0.01,0.0,meteohub,2013-05-03 02:53:00,
2013-05-02 21:58:00,65.5,63.7,30.01,SSE,165,0.0,4.0,94,0.00,,,0.01,0.0,meteohub,2013-05-03 02:58:00,
2013-05-02 22:03:00,65.5,64.0,30.01,SSE,168,2.0,3.0,95,0.00,,,0.01,0.0,meteohub,2013-05-03 03:03:00,
2013-05-02 22:08:00,65.3,63.5,30.02,SSW,192,3.0,3.0,94,0.00,,,0.01,0.0,meteohub,2013-05-03 03:08:00,
2013-05-02 22:13:00,64.2,62.2,30.02,SSW,198,2.0,10.0,93,0.00,,,0.01,0.0,meteohub,2013-05-03 03:13:00,
2013-05-02 22:18:00,63.1,61.2,30.03,South,181,5.0,10.0,93,0.00,,,0.01,0.0,meteohub,2013-05-03 03:18:00,
2013-05-02 22:23:00,61.9,59.5,30.03,SSW,196,0.0,10.0,92,0.01,,,0.02,0.0,meteohub,2013-05-03 03:23:00,
2013-05-02 22:28:00,61.0,58.6,30.03,SSW,193,0.0,10.0,92,0.02,,,0.03,0.0,meteohub,2013-05-03 03:28:00,
2013-05-02 22:33:00,60.3,57.9,30.03,SSE,165,9.0,10.0,92,0.02,,,0.03,0.0,meteohub,2013-05-03 03:33:00,
2013-05-02 22:38:00,59.7,57.4,30.03,SSE,158,1.0,12.0,92,0.02,,,0.03,0.0,meteohub,2013-05-03 03:38:00,
2013-05-02 22:43:00,59.2,56.8,30.03,South,183,3.0,12.0,92,0.03,,,0.04,0.0,meteohub,2013-05-03 03:43:00,
2013-05-02 22:48:00,59.0,56.7,30.03,SSE,164,5.0,12.0,92,0.03,,,0.04,0.0,meteohub,2013-05-03 03:48:00,
2013-05-02 22:53:00,58.5,56.1,30.03,South,177,2.0,11.0,92,0.03,,,0.04,0.0,meteohub,2013-05-03 03:53:00,
2013-05-02 22:58:00,58.1,55.8,30.02,SSW,198,0.0,12.0,92,0.03,,,0.04,0.0,meteohub,2013-05-03 03:58:00,
2013-05-02 23:01:00,57.9,55.9,30.03,SW,235,0.0,12.0,93,0.03,,,0.04,0.0,meteohub,2013-05-03 04:01:00,
2013-05-02 23:02:00,57.9,55.9,30.03,South,177,5.0,12.0,93,0.03,,,0.04,0.0,meteohub,2013-05-03 04:02:00,
2013-05-02 23:07:00,57.6,55.6,30.02,South,191,2.0,12.0,93,0.03,,,0.04,0.0,meteohub,2013-05-03 04:07:00,
2013-05-02 23:12:00,57.4,55.4,30.02,SSW,194,0.0,12.0,93,0.03,,,0.04,0.0,meteohub,2013-05-03 04:12:00,
2013-05-02 23:17:00,57.4,55.4,30.02,South,177,0.0,12.0,93,0.02,,,0.04,0.0,meteohub,2013-05-03 04:17:00,
2013-05-02 23:22:00,57.2,55.2,30.02,South,184,3.0,15.0,93,0.02,,,0.04,0.0,meteohub,2013-05-03 04:22:00,
2013-05-02 23:27:00,57.0,55.0,30.02,South,181,0.0,15.0,93,0.01,,,0.04,0.0,meteohub,2013-05-03 04:27:00,
2013-05-02 23:32:00,57.0,55.2,30.02,South,170,0.0,15.0,94,0.01,,,0.04,0.0,meteohub,2013-05-03 04:32:00,
2013-05-02 23:37:00,56.8,55.2,30.02,SSE,156,4.0,10.0,94,0.01,,,0.04,0.0,meteohub,2013-05-03 04:37:00,
2013-05-02 23:42:00,56.8,55.2,30.02,SSE,163,6.0,10.0,94,0.00,,,0.04,0.0,meteohub,2013-05-03 04:42:00,
2013-05-02 23:47:00,56.7,55.0,30.02,SSW,195,0.0,9.0,94,0.00,,,0.04,0.0,meteohub,2013-05-03 04:47:00,
2013-05-02 23:52:00,56.5,54.9,30.02,South,174,0.0,9.0,94,0.00,,,0.04,0.0,meteohub,2013-05-03 04:52:00,
2013-05-02 23:57:00,56.1,54.5,30.03,SSE,168,0.0,10.0,94,0.00,,,0.04,0.0,meteohub,2013-05-03 04:57:00,